Terminal Aerodrome Forecast
Issued by NWS

Home | Current Version | Previous Version | Text Only | Print | Product List | Glossary On
Versions: 1 2 3 4 5 6 7 8 9 10 11 12 13 14 15 16 17 18 19 20 21 22 23 24 25 26
059
FTUS41 KBUF 292106 AAA
TAFIAG
TAF AMD
KIAG 292106Z 2921/3018 04010KT P6SM SCT060
     FM292200 04008KT P6SM BKN060
     FM300300 08006KT P6SM BKN060
     FM301500 08011KT P6SM OVC080=

USA.gov is the U.S. government's official web portal to all federal, state and local government web resources and services.